createdAt,value
2023-01-07T00:00:10.844Z,48.10
2023-01-07T00:02:39.511Z,54.73
2023-01-07T00:05:10.563Z,47.97
2023-01-07T00:07:39.139Z,48.93
2023-01-07T00:10:08.288Z,50.90
2023-01-07T00:12:36.858Z,53.43
2023-01-07T00:15:07.223Z,48.33
2023-01-07T00:17:35.817Z,45.60
2023-01-07T00:20:04.414Z,48.53
2023-01-07T00:22:34.342Z,51.53
2023-01-07T00:25:03.526Z,52.27
2023-01-07T00:27:32.163Z,60.47
2023-01-07T00:30:00.884Z,55.23
2023-01-07T00:32:43.200Z,55.40
2023-01-07T00:35:23.295Z,54.53
2023-01-07T00:37:54.600Z,56.77
2023-01-07T00:40:23.615Z,48.80
2023-01-07T00:43:02.693Z,49.83
2023-01-07T00:45:33.350Z,52.40
2023-01-07T00:48:03.508Z,50.13
2023-01-07T00:50:34.225Z,51.80
2023-01-07T00:53:04.829Z,52.17
2023-01-07T00:55:34.116Z,48.97
2023-01-07T00:58:03.140Z,57.97
2023-01-07T01:00:32.295Z,48.27
2023-01-07T01:03:00.892Z,56.27
2023-01-07T01:05:29.508Z,51.63
2023-01-07T01:07:58.996Z,50.03
2023-01-07T01:10:29.199Z,52.17
2023-01-07T01:12:57.755Z,53.20
2023-01-07T01:15:26.353Z,52.03
2023-01-07T01:17:55.056Z,52.80
2023-01-07T01:20:23.535Z,53.30
2023-01-07T01:22:52.139Z,51.97
2023-01-07T01:25:20.793Z,54.13
2023-01-07T01:27:50.796Z,49.87
2023-01-07T01:30:19.469Z,57.33
2023-01-07T01:32:48.091Z,47.53
2023-01-07T01:35:16.811Z,47.20
2023-01-07T01:37:45.333Z,49.13
2023-01-07T01:40:14.407Z,51.67
2023-01-07T01:42:43.240Z,49.33
2023-01-07T01:45:14.136Z,55.93
2023-01-07T01:47:46.311Z,60.57
2023-01-07T01:50:19.985Z,57.57
2023-01-07T01:52:57.147Z,60.30
2023-01-07T01:55:29.145Z,57.33
2023-01-07T01:58:01.459Z,54.07
2023-01-07T02:00:31.751Z,51.47
2023-01-07T02:03:01.500Z,56.67
2023-01-07T02:05:33.331Z,52.93
2023-01-07T02:08:02.006Z,51.67
2023-01-07T02:10:32.032Z,50.73
2023-01-07T02:13:36.913Z,51.27
2023-01-07T02:16:18.749Z,53.80
2023-01-07T02:19:02.015Z,50.67
2023-01-07T02:21:42.190Z,57.40
2023-01-07T02:24:37.537Z,55.30
2023-01-07T02:27:33.715Z,56.90
2023-01-07T02:30:36.221Z,60.67
2023-01-07T02:33:32.685Z,53.90
2023-01-07T02:36:22.381Z,57.87
2023-01-07T02:39:32.780Z,56.03
2023-01-07T02:42:05.731Z,52.77
2023-01-07T02:44:40.299Z,57.83
2023-01-07T02:47:15.323Z,54.53
2023-01-07T02:49:47.496Z,60.00
2023-01-07T02:52:19.490Z,51.53
2023-01-07T02:54:51.405Z,50.03
2023-01-07T02:57:42.814Z,54.33
2023-01-07T03:00:23.538Z,56.80
2023-01-07T03:03:04.860Z,58.83
2023-01-07T03:05:49.257Z,56.67
2023-01-07T03:08:46.235Z,57.37
2023-01-07T03:11:15.363Z,60.87
2023-01-07T03:13:50.042Z,60.70
2023-01-07T03:16:23.145Z,58.10
2023-01-07T03:18:57.395Z,58.17
2023-01-07T03:21:29.757Z,53.83
2023-01-07T03:24:00.039Z,55.30
2023-01-07T03:26:33.126Z,55.80
2023-01-07T03:29:04.217Z,62.87
2023-01-07T03:31:33.487Z,62.57
2023-01-07T03:34:06.776Z,64.57
2023-01-07T03:36:41.560Z,68.57
2023-01-07T03:39:12.192Z,66.97
2023-01-07T03:41:58.618Z,68.20
2023-01-07T03:44:27.188Z,66.00
2023-01-07T03:46:55.991Z,62.37
2023-01-07T03:49:24.499Z,67.77
2023-01-07T03:51:54.928Z,65.40
2023-01-07T03:54:24.061Z,59.47
2023-01-07T03:56:52.919Z,63.50
2023-01-07T03:59:21.417Z,58.03
2023-01-07T04:01:50.226Z,61.93
2023-01-07T04:04:19.006Z,62.07
2023-01-07T04:06:47.983Z,64.40
2023-01-07T04:09:19.041Z,67.40
2023-01-07T04:11:47.628Z,62.97
2023-01-07T04:14:16.208Z,61.47
2023-01-07T04:16:44.830Z,59.37
2023-01-07T04:19:13.341Z,63.33
2023-01-07T04:21:41.844Z,65.37
2023-01-07T04:24:10.761Z,66.47
2023-01-07T04:26:40.689Z,73.53
2023-01-07T04:29:09.236Z,66.70
2023-01-07T04:31:37.730Z,74.07
2023-01-07T04:34:06.361Z,66.40
2023-01-07T04:36:34.851Z,63.63
2023-01-07T04:39:03.650Z,59.63
2023-01-07T04:41:32.156Z,63.83
2023-01-07T04:44:02.210Z,64.57
2023-01-07T04:46:30.874Z,58.80
2023-01-07T04:48:59.453Z,66.63
2023-01-07T04:51:28.034Z,66.23
2023-01-07T04:53:57.623Z,62.40
2023-01-07T04:56:26.203Z,64.77
2023-01-07T04:58:54.727Z,65.20
2023-01-07T05:01:25.642Z,61.10
2023-01-07T05:03:54.387Z,66.23
2023-01-07T05:06:22.900Z,62.00
2023-01-07T05:08:51.392Z,63.83
2023-01-07T05:11:21.972Z,63.63
2023-01-07T05:13:51.111Z,65.90
2023-01-07T05:16:19.724Z,61.73
2023-01-07T05:18:49.693Z,60.57
2023-01-07T05:21:18.207Z,62.70
2023-01-07T05:23:47.063Z,62.67
2023-01-07T05:26:15.596Z,64.80
2023-01-07T05:28:44.152Z,59.53
2023-01-07T05:31:13.001Z,62.33
2023-01-07T05:33:41.641Z,68.40
2023-01-07T05:36:11.659Z,64.13
2023-01-07T05:38:40.553Z,62.93
2023-01-07T05:41:09.403Z,61.67
2023-01-07T05:43:37.903Z,60.60
2023-01-07T05:46:06.871Z,62.87
2023-01-07T05:48:35.584Z,60.07
2023-01-07T05:51:04.074Z,68.33
2023-01-07T05:53:34.019Z,61.23
2023-01-07T05:56:03.106Z,66.23
2023-01-07T05:58:31.839Z,62.93
2023-01-07T06:01:00.427Z,66.50
2023-01-07T06:03:29.040Z,62.77
2023-01-07T06:05:57.761Z,63.13
2023-01-07T06:08:26.279Z,59.27
2023-01-07T06:10:56.626Z,57.17
2023-01-07T06:13:25.148Z,62.33
2023-01-07T06:15:54.007Z,62.43
2023-01-07T06:18:22.496Z,55.73
2023-01-07T06:20:52.539Z,53.93
2023-01-07T06:23:21.050Z,51.20
2023-01-07T06:25:49.668Z,62.63
2023-01-07T06:28:19.570Z,60.53
2023-01-07T06:30:48.877Z,57.50
2023-01-07T06:33:17.926Z,62.20
2023-01-07T06:35:47.240Z,55.80
2023-01-07T06:38:15.881Z,55.30
2023-01-07T06:40:44.785Z,51.77
2023-01-07T06:43:13.326Z,51.63
2023-01-07T06:45:43.247Z,55.73
2023-01-07T06:48:11.787Z,55.70
2023-01-07T06:50:40.382Z,50.90
2023-01-07T06:53:09.025Z,53.33
2023-01-07T06:55:37.856Z,54.40
2023-01-07T06:58:06.355Z,46.97
2023-01-07T07:00:34.963Z,48.33
2023-01-07T07:03:05.214Z,59.33
2023-01-07T07:05:34.109Z,55.00
2023-01-07T07:08:02.673Z,48.17
2023-01-07T07:10:31.171Z,54.03
2023-01-07T07:12:59.846Z,63.83
2023-01-07T07:15:28.441Z,55.80
2023-01-07T07:17:57.050Z,55.10
2023-01-07T07:20:27.023Z,54.40
2023-01-07T07:22:55.508Z,55.33
2023-01-07T07:25:24.176Z,51.00
2023-01-07T07:27:52.708Z,51.63
2023-01-07T07:30:21.403Z,48.77
2023-01-07T07:32:50.146Z,44.30
2023-01-07T07:35:18.829Z,45.80
2023-01-07T07:37:48.814Z,41.93
2023-01-07T07:40:17.423Z,49.17
2023-01-07T07:43:10.168Z,61.65
2023-01-07T07:45:34.416Z,45.17
2023-01-07T07:48:03.025Z,48.00
2023-01-07T07:50:31.511Z,46.57
2023-01-07T07:53:04.493Z,43.93
2023-01-07T07:55:33.633Z,47.17
2023-01-07T07:58:02.276Z,54.97
2023-01-07T08:00:30.857Z,53.83
2023-01-07T08:02:59.996Z,49.57
2023-01-07T08:05:29.276Z,42.15
2023-01-07T08:07:58.419Z,46.30
2023-01-07T08:10:29.839Z,46.73
2023-01-07T08:12:58.347Z,44.97
2023-01-07T08:15:26.912Z,39.90
2023-01-07T08:18:00.224Z,43.87
2023-01-07T08:20:29.231Z,42.17
2023-01-07T08:23:00.508Z,37.13
2023-01-07T08:25:32.153Z,38.43
2023-01-07T08:28:02.028Z,40.27
2023-01-07T08:30:31.873Z,37.77
2023-01-07T08:33:00.727Z,37.67
2023-01-07T08:35:29.461Z,36.83
2023-01-07T08:38:03.807Z,36.80
2023-01-07T08:40:34.307Z,40.27
2023-01-07T08:43:03.655Z,37.17
2023-01-07T08:45:32.295Z,36.27
2023-01-07T08:48:01.073Z,40.20
2023-01-07T08:50:31.601Z,38.93
2023-01-07T08:53:00.724Z,40.60
2023-01-07T08:55:29.347Z,50.10
2023-01-07T08:57:59.372Z,47.63
2023-01-07T09:00:28.380Z,50.57
2023-01-07T09:02:56.952Z,49.70
2023-01-07T09:05:25.810Z,43.47
2023-01-07T09:07:54.859Z,47.97
2023-01-07T09:10:23.435Z,51.17
2023-01-07T09:12:52.543Z,56.40
2023-01-07T09:15:22.659Z,48.17
2023-01-07T09:17:51.271Z,57.47
2023-01-07T09:20:20.198Z,60.97
2023-01-07T09:22:49.068Z,53.07
2023-01-07T09:25:17.686Z,64.47
2023-01-07T09:27:47.184Z,54.43
2023-01-07T09:30:15.745Z,55.30
2023-01-07T09:32:45.849Z,62.60
2023-01-07T09:35:15.732Z,68.63
2023-01-07T09:37:44.927Z,64.53
2023-01-07T09:40:24.468Z,61.17
2023-01-07T09:42:59.705Z,65.07
2023-01-07T09:45:32.081Z,51.13
2023-01-07T09:48:05.973Z,61.33
2023-01-07T09:50:44.653Z,44.47
2023-01-07T09:53:17.691Z,42.00
2023-01-07T09:56:11.134Z,44.50
2023-01-07T09:58:38.082Z,42.80
2023-01-07T10:01:11.957Z,47.40
2023-01-07T10:03:54.177Z,45.47
2023-01-07T10:06:42.766Z,48.03
2023-01-07T10:09:22.513Z,47.00
2023-01-07T10:12:00.694Z,50.63
2023-01-07T10:14:57.684Z,52.83
2023-01-07T10:17:37.772Z,51.23
2023-01-07T10:20:17.418Z,43.13
2023-01-07T10:22:53.689Z,46.33
2023-01-07T10:25:23.662Z,47.00
2023-01-07T10:27:57.611Z,51.90
2023-01-07T10:30:29.615Z,48.77
2023-01-07T10:33:04.635Z,46.17
2023-01-07T10:35:38.196Z,50.00
2023-01-07T10:38:07.396Z,56.20
2023-01-07T10:40:43.010Z,50.53
2023-01-07T10:43:25.678Z,52.00
2023-01-07T10:46:17.803Z,63.17
2023-01-07T10:49:35.731Z,63.77
2023-01-07T10:52:33.219Z,56.23
2023-01-07T10:55:15.939Z,57.77
2023-01-07T10:57:45.167Z,46.30
2023-01-07T11:00:16.638Z,39.90
2023-01-07T11:02:47.983Z,40.80
2023-01-07T11:05:18.501Z,37.78
2023-01-07T11:07:52.457Z,38.90
2023-01-07T11:10:24.163Z,37.57
2023-01-07T11:12:55.453Z,34.88
2023-01-07T11:15:27.530Z,37.50
2023-01-07T11:18:01.991Z,39.33
2023-01-07T11:20:51.828Z,42.60
2023-01-07T11:23:40.129Z,41.30
2023-01-07T11:26:17.079Z,44.92
2023-01-07T11:28:59.611Z,38.90
2023-01-07T11:31:47.819Z,37.73
2023-01-07T11:34:24.165Z,45.97
2023-01-07T11:36:55.290Z,40.73
2023-01-07T11:39:29.597Z,40.90
2023-01-07T11:42:00.687Z,39.07
2023-01-07T11:44:29.584Z,34.83
2023-01-07T11:46:58.496Z,38.77
2023-01-07T11:49:32.228Z,36.33
2023-01-07T11:52:00.949Z,36.93
2023-01-07T11:54:31.962Z,39.03
2023-01-07T11:57:14.396Z,39.97
2023-01-07T11:59:43.109Z,44.90
2023-01-07T12:02:26.458Z,42.57
2023-01-07T12:05:18.563Z,44.27
2023-01-07T12:07:48.146Z,48.07
2023-01-07T12:10:32.471Z,40.70
2023-01-07T12:13:03.347Z,48.70
2023-01-07T12:15:35.153Z,43.40
2023-01-07T12:18:31.385Z,45.37
2023-01-07T12:21:29.541Z,45.33
2023-01-07T12:24:09.702Z,51.60
2023-01-07T12:26:48.842Z,44.97
2023-01-07T12:29:28.557Z,54.20
2023-01-07T12:32:11.600Z,50.00
2023-01-07T12:34:50.276Z,53.60
2023-01-07T12:37:33.300Z,50.97
2023-01-07T12:40:17.794Z,52.20
2023-01-07T12:42:51.864Z,45.53
2023-01-07T12:45:28.354Z,48.20
2023-01-07T12:48:02.664Z,43.83
2023-01-07T12:50:37.213Z,47.50
2023-01-07T12:53:15.621Z,44.53
2023-01-07T12:55:49.675Z,47.00
2023-01-07T12:58:30.082Z,49.73
2023-01-07T13:01:05.952Z,48.37
2023-01-07T13:03:44.590Z,46.30
2023-01-07T13:06:20.092Z,49.10
2023-01-07T13:08:56.185Z,48.40
2023-01-07T13:11:43.998Z,52.87
2023-01-07T13:14:22.823Z,48.90
2023-01-07T13:16:51.547Z,44.90
2023-01-07T13:19:21.234Z,43.57
2023-01-07T13:21:51.671Z,46.13
2023-01-07T13:24:55.865Z,44.50
2023-01-07T13:27:29.144Z,48.97
2023-01-07T13:30:18.550Z,48.07
2023-01-07T13:33:12.069Z,57.37
2023-01-07T13:36:03.518Z,55.73
2023-01-07T13:39:04.601Z,49.43
2023-01-07T13:42:07.871Z,45.27
2023-01-07T13:45:03.571Z,41.03
2023-01-07T13:47:43.253Z,38.03
2023-01-07T13:50:22.365Z,48.27
2023-01-07T13:53:00.084Z,42.17
2023-01-07T13:55:34.817Z,47.30
2023-01-07T13:58:04.123Z,46.57
2023-01-07T14:01:05.103Z,49.00
2023-01-07T14:03:47.007Z,53.60
2023-01-07T14:06:46.389Z,64.13
2023-01-07T14:09:29.498Z,50.23
2023-01-07T14:12:31.019Z,56.17
2023-01-07T14:15:44.267Z,88.83
2023-01-07T14:19:06.485Z,52.70
2023-01-07T14:22:02.972Z,54.20
2023-01-07T14:25:13.940Z,53.33
2023-01-07T14:28:10.194Z,55.53
2023-01-07T14:30:46.722Z,51.43
2023-01-07T14:33:20.956Z,52.77
2023-01-07T14:35:57.572Z,56.77
2023-01-07T14:38:58.270Z,54.03
2023-01-07T14:41:27.583Z,62.07
2023-01-07T14:44:03.784Z,80.97
2023-01-07T14:46:50.356Z,66.77
2023-01-07T14:49:45.969Z,61.37
2023-01-07T14:52:37.113Z,59.27
2023-01-07T14:55:29.223Z,54.40
2023-01-07T14:58:11.065Z,58.37
2023-01-07T15:01:02.586Z,60.17
2023-01-07T15:03:48.125Z,42.33
2023-01-07T15:06:32.286Z,52.07
2023-01-07T15:09:23.367Z,45.50
2023-01-07T15:12:15.131Z,42.50
2023-01-07T15:15:05.843Z,42.17
2023-01-07T15:17:35.006Z,40.83
2023-01-07T15:20:07.026Z,41.60
2023-01-07T15:23:01.371Z,42.97
2023-01-07T15:25:42.322Z,48.57
2023-01-07T15:28:20.801Z,42.67
2023-01-07T15:30:58.537Z,48.97
2023-01-07T15:33:53.667Z,51.93
2023-01-07T15:36:22.552Z,40.00
2023-01-07T15:38:53.246Z,43.30
2023-01-07T15:41:30.327Z,45.87
2023-01-07T15:44:02.381Z,50.70
2023-01-07T15:46:33.129Z,50.10
2023-01-07T15:49:20.690Z,47.73
2023-01-07T15:51:51.358Z,46.93
2023-01-07T15:54:31.474Z,44.43
2023-01-07T15:57:04.454Z,52.30
2023-01-07T15:59:36.636Z,52.47
2023-01-07T16:02:17.971Z,51.47
2023-01-07T16:04:48.815Z,48.20
2023-01-07T16:07:24.121Z,47.87
2023-01-07T16:09:53.132Z,55.37
2023-01-07T16:12:32.807Z,54.70
2023-01-07T16:15:05.041Z,54.73
2023-01-07T16:17:35.376Z,50.50
2023-01-07T16:20:21.045Z,47.50
2023-01-07T16:22:50.075Z,42.57
2023-01-07T16:25:27.247Z,40.50
2023-01-07T16:27:56.288Z,36.27
2023-01-07T16:30:26.344Z,39.43
2023-01-07T16:32:55.360Z,38.80
2023-01-07T16:35:35.775Z,46.37
2023-01-07T16:38:05.139Z,39.60
2023-01-07T16:40:36.738Z,43.20
2023-01-07T16:43:06.187Z,42.60
2023-01-07T16:45:37.682Z,43.03
2023-01-07T16:48:20.175Z,42.27
2023-01-07T16:50:50.203Z,48.80
2023-01-07T16:53:34.475Z,38.07
2023-01-07T16:56:16.637Z,35.80
2023-01-07T16:58:50.133Z,51.63
2023-01-07T17:01:22.889Z,45.63
2023-01-07T17:03:55.716Z,50.70
2023-01-07T17:06:28.536Z,49.63
2023-01-07T17:08:59.465Z,50.20
2023-01-07T17:11:37.610Z,42.60
2023-01-07T17:14:26.611Z,45.70
2023-01-07T17:17:02.652Z,40.90
2023-01-07T17:19:40.045Z,45.73
2023-01-07T17:22:30.142Z,45.00
2023-01-07T17:25:09.150Z,49.93
2023-01-07T17:27:42.997Z,44.57
2023-01-07T17:30:17.549Z,43.93
2023-01-07T17:32:49.737Z,43.33
2023-01-07T17:35:20.533Z,51.87
2023-01-07T17:37:49.453Z,52.27
2023-01-07T17:40:18.925Z,55.80
2023-01-07T17:43:05.506Z,60.10
2023-01-07T17:45:35.519Z,53.27
2023-01-07T17:48:13.675Z,49.10
2023-01-07T17:50:43.384Z,51.97
2023-01-07T17:53:21.468Z,61.90
2023-01-07T17:55:50.142Z,61.03
2023-01-07T17:58:27.364Z,62.93
2023-01-07T18:00:56.775Z,52.87
2023-01-07T18:03:27.422Z,50.77
2023-01-07T18:05:56.268Z,53.47
2023-01-07T18:08:24.952Z,56.93
2023-01-07T18:11:19.596Z,56.97
2023-01-07T18:13:48.145Z,71.13
2023-01-07T18:16:16.883Z,66.37
2023-01-07T18:18:46.898Z,70.03
2023-01-07T18:21:15.811Z,64.80
2023-01-07T18:23:47.430Z,62.90
2023-01-07T18:26:17.641Z,71.47
2023-01-07T18:28:46.393Z,65.67
2023-01-07T18:31:14.988Z,67.13
2023-01-07T18:33:43.613Z,58.00
2023-01-07T18:36:13.724Z,55.57
2023-01-07T18:38:42.452Z,53.33
2023-01-07T18:41:11.009Z,61.67
2023-01-07T18:43:39.867Z,64.60
2023-01-07T18:46:09.824Z,61.33
2023-01-07T18:48:39.030Z,54.20
2023-01-07T18:51:13.362Z,52.80
2023-01-07T18:53:41.918Z,56.07
2023-01-07T18:56:11.969Z,58.93
2023-01-07T18:58:43.196Z,73.00
2023-01-07T19:01:13.505Z,70.13
2023-01-07T19:03:42.221Z,64.80
2023-01-07T19:06:13.283Z,61.50
2023-01-07T19:08:42.264Z,64.53
2023-01-07T19:11:11.968Z,68.83
2023-01-07T19:13:41.165Z,64.03
2023-01-07T19:16:11.188Z,69.80
2023-01-07T19:18:40.340Z,75.17
2023-01-07T19:21:12.111Z,68.67
2023-01-07T19:23:42.486Z,72.47
2023-01-07T19:26:13.147Z,72.97
2023-01-07T19:28:41.706Z,66.03
2023-01-07T19:31:10.910Z,64.40
2023-01-07T19:33:42.457Z,61.93
2023-01-07T19:36:13.066Z,63.83
2023-01-07T19:38:44.304Z,67.73
2023-01-07T19:41:17.851Z,68.73
2023-01-07T19:43:46.984Z,66.93
2023-01-07T19:46:16.767Z,72.17
2023-01-07T19:48:47.905Z,67.90
2023-01-07T19:51:16.666Z,66.80
2023-01-07T19:53:48.244Z,72.20
2023-01-07T19:56:16.832Z,71.90
2023-01-07T19:58:46.648Z,68.20
2023-01-07T20:01:18.065Z,62.03
2023-01-07T20:03:47.158Z,61.53
2023-01-07T20:06:18.208Z,64.80
2023-01-07T20:08:48.351Z,67.53
2023-01-07T20:11:17.889Z,71.53
2023-01-07T20:13:47.955Z,69.40
2023-01-07T20:16:18.411Z,66.57
2023-01-07T20:18:48.572Z,68.13
2023-01-07T20:21:18.911Z,74.93
2023-01-07T20:23:49.187Z,67.73
2023-01-07T20:26:20.075Z,66.57
2023-01-07T20:28:49.057Z,67.60
2023-01-07T20:31:19.604Z,70.87
2023-01-07T20:33:50.504Z,66.37
2023-01-07T20:36:23.942Z,70.87
2023-01-07T20:38:53.931Z,69.63
2023-01-07T20:41:24.335Z,68.83
2023-01-07T20:43:54.748Z,71.97
2023-01-07T20:46:24.518Z,77.23
2023-01-07T20:48:53.421Z,77.83
2023-01-07T20:51:22.484Z,82.43
2023-01-07T20:53:51.149Z,76.47
2023-01-07T20:56:22.954Z,68.37
2023-01-07T20:58:52.216Z,78.60
2023-01-07T21:01:22.610Z,73.33
2023-01-07T21:03:55.789Z,73.90
2023-01-07T21:06:24.821Z,70.27
2023-01-07T21:08:53.356Z,65.73
2023-01-07T21:11:25.325Z,68.70
2023-01-07T21:13:58.489Z,78.03
2023-01-07T21:16:28.675Z,71.10
2023-01-07T21:18:57.873Z,64.00
2023-01-07T21:21:26.971Z,60.63
2023-01-07T21:23:56.274Z,64.93
2023-01-07T21:26:26.381Z,68.67
2023-01-07T21:28:56.250Z,69.47
2023-01-07T21:31:26.291Z,69.67
2023-01-07T21:33:57.831Z,65.47
2023-01-07T21:36:27.789Z,70.00
2023-01-07T21:38:58.523Z,69.17
2023-01-07T21:41:30.907Z,71.73
2023-01-07T21:43:59.861Z,62.97
2023-01-07T21:46:28.506Z,63.23
2023-01-07T21:48:57.264Z,66.93
2023-01-07T21:51:27.698Z,73.53
2023-01-07T21:53:57.550Z,66.87
2023-01-07T21:56:32.313Z,71.80
2023-01-07T21:59:01.315Z,70.70
2023-01-07T22:01:31.176Z,61.77
2023-01-07T22:04:00.233Z,53.33
2023-01-07T22:06:30.595Z,56.43
2023-01-07T22:09:01.198Z,52.70
2023-01-07T22:11:31.234Z,54.73
2023-01-07T22:14:01.225Z,63.50
2023-01-07T22:16:31.737Z,56.33
2023-01-07T22:19:01.655Z,66.37
2023-01-07T22:21:30.604Z,52.87
2023-01-07T22:23:59.114Z,50.67
2023-01-07T22:26:27.785Z,50.93
2023-01-07T22:29:02.742Z,48.83
2023-01-07T22:31:34.070Z,72.93
2023-01-07T22:34:02.677Z,47.27
2023-01-07T22:36:34.255Z,54.50
2023-01-07T22:39:05.255Z,47.33
2023-01-07T22:41:35.611Z,46.27
2023-01-07T22:44:10.827Z,44.90
2023-01-07T22:46:40.895Z,50.80
2023-01-07T22:49:09.678Z,49.17
2023-01-07T22:51:43.277Z,55.07
2023-01-07T22:54:14.361Z,58.00
2023-01-07T22:56:43.729Z,58.83
2023-01-07T22:59:14.379Z,56.07
2023-01-07T23:01:42.856Z,52.10
2023-01-07T23:04:11.694Z,62.43
2023-01-07T23:06:40.444Z,70.87
2023-01-07T23:09:09.025Z,80.90
2023-01-07T23:11:49.681Z,69.83
2023-01-07T23:14:21.749Z,68.67
2023-01-07T23:16:51.069Z,62.80
2023-01-07T23:19:20.694Z,57.57
2023-01-07T23:21:51.018Z,50.93
2023-01-07T23:24:19.976Z,49.73
2023-01-07T23:26:49.035Z,51.30
2023-01-07T23:29:17.717Z,59.60
2023-01-07T23:31:47.914Z,52.00
2023-01-07T23:34:17.353Z,44.37
2023-01-07T23:36:46.070Z,50.83
2023-01-07T23:39:14.829Z,48.43
2023-01-07T23:41:43.358Z,49.60
2023-01-07T23:44:12.043Z,52.00
2023-01-07T23:46:40.677Z,49.20
2023-01-07T23:49:10.662Z,50.60
2023-01-07T23:51:40.812Z,53.20
2023-01-07T23:54:09.273Z,49.33
2023-01-07T23:56:38.106Z,53.70
2023-01-07T23:59:06.678Z,49.30
